sensor_id;sensor_type;location;lat;lon;timestamp;P1;durP1;ratioP1;P2;durP2;ratioP2
10311;SDS011;5201;48.776;9.128;2022-12-24T00:01:21;1.80;;;0.80;;
10311;SDS011;5201;48.776;9.128;2022-12-24T00:03:47;2.37;;;0.90;;
10311;SDS011;5201;48.776;9.128;2022-12-24T00:06:17;1.93;;;0.87;;
10311;SDS011;5201;48.776;9.128;2022-12-24T00:08:44;3.60;;;1.00;;
10311;SDS011;5201;48.776;9.128;2022-12-24T00:11:10;1.23;;;0.60;;
10311;SDS011;5201;48.776;9.128;2022-12-24T00:13:36;5.20;;;1.10;;
10311;SDS011;5201;48.776;9.128;2022-12-24T00:16:01;5.07;;;1.33;;
10311;SDS011;5201;48.776;9.128;2022-12-24T00:18:27;3.07;;;1.00;;
10311;SDS011;5201;48.776;9.128;2022-12-24T00:20:52;1.93;;;0.83;;
10311;SDS011;5201;48.776;9.128;2022-12-24T00:23:18;4.53;;;0.87;;
10311;SDS011;5201;48.776;9.128;2022-12-24T00:25:45;4.40;;;0.90;;
10311;SDS011;5201;48.776;9.128;2022-12-24T00:28:11;4.03;;;0.90;;
10311;SDS011;5201;48.776;9.128;2022-12-24T00:30:38;5.07;;;0.80;;
10311;SDS011;5201;48.776;9.128;2022-12-24T00:33:04;1.63;;;0.60;;
10311;SDS011;5201;48.776;9.128;2022-12-24T00:35:32;8.00;;;0.83;;
10311;SDS011;5201;48.776;9.128;2022-12-24T00:37:59;3.40;;;0.70;;
10311;SDS011;5201;48.776;9.128;2022-12-24T00:40:24;5.40;;;1.00;;
10311;SDS011;5201;48.776;9.128;2022-12-24T00:42:50;2.77;;;0.73;;
10311;SDS011;5201;48.776;9.128;2022-12-24T00:45:16;3.57;;;0.70;;
10311;SDS011;5201;48.776;9.128;2022-12-24T00:47:41;9.07;;;1.37;;
10311;SDS011;5201;48.776;9.128;2022-12-24T00:50:07;4.63;;;0.90;;
10311;SDS011;5201;48.776;9.128;2022-12-24T00:52:33;4.03;;;1.17;;
10311;SDS011;5201;48.776;9.128;2022-12-24T00:54:58;5.67;;;1.30;;
10311;SDS011;5201;48.776;9.128;2022-12-24T00:57:24;7.07;;;0.90;;
10311;SDS011;5201;48.776;9.128;2022-12-24T00:59:50;5.43;;;1.23;;
10311;SDS011;5201;48.776;9.128;2022-12-24T01:02:15;1.13;;;0.70;;
10311;SDS011;5201;48.776;9.128;2022-12-24T01:04:41;4.60;;;1.60;;
10311;SDS011;5201;48.776;9.128;2022-12-24T01:07:25;3.77;;;0.90;;
10311;SDS011;5201;48.776;9.128;2022-12-24T01:09:50;1.67;;;0.80;;
10311;SDS011;5201;48.776;9.128;2022-12-24T01:12:16;4.33;;;0.97;;
10311;SDS011;5201;48.776;9.128;2022-12-24T01:14:41;1.93;;;0.80;;
10311;SDS011;5201;48.776;9.128;2022-12-24T01:17:07;2.50;;;0.80;;
10311;SDS011;5201;48.776;9.128;2022-12-24T01:19:33;2.83;;;0.80;;
10311;SDS011;5201;48.776;9.128;2022-12-24T01:21:58;6.47;;;1.03;;
10311;SDS011;5201;48.776;9.128;2022-12-24T01:24:24;1.63;;;0.83;;
10311;SDS011;5201;48.776;9.128;2022-12-24T01:26:50;3.40;;;0.90;;
10311;SDS011;5201;48.776;9.128;2022-12-24T01:29:15;5.03;;;0.90;;
10311;SDS011;5201;48.776;9.128;2022-12-24T01:31:41;4.80;;;1.00;;
10311;SDS011;5201;48.776;9.128;2022-12-24T01:34:06;5.03;;;0.80;;
10311;SDS011;5201;48.776;9.128;2022-12-24T01:36:32;3.10;;;0.70;;
10311;SDS011;5201;48.776;9.128;2022-12-24T01:38:58;7.43;;;1.07;;
10311;SDS011;5201;48.776;9.128;2022-12-24T01:41:24;3.53;;;0.83;;
10311;SDS011;5201;48.776;9.128;2022-12-24T01:44:15;5.70;;;1.03;;
10311;SDS011;5201;48.776;9.128;2022-12-24T01:46:41;5.27;;;1.20;;
10311;SDS011;5201;48.776;9.128;2022-12-24T01:49:07;8.63;;;1.87;;
10311;SDS011;5201;48.776;9.128;2022-12-24T01:54:26;2.97;;;1.20;;
10311;SDS011;5201;48.776;9.128;2022-12-24T01:57:00;2.50;;;1.17;;
10311;SDS011;5201;48.776;9.128;2022-12-24T01:59:48;5.60;;;1.40;;
10311;SDS011;5201;48.776;9.128;2022-12-24T02:02:17;8.43;;;1.13;;
10311;SDS011;5201;48.776;9.128;2022-12-24T02:07:33;8.10;;;1.27;;
10311;SDS011;5201;48.776;9.128;2022-12-24T02:10:00;9.37;;;1.33;;
10311;SDS011;5201;48.776;9.128;2022-12-24T02:12:28;5.60;;;1.87;;
10311;SDS011;5201;48.776;9.128;2022-12-24T02:14:56;6.70;;;1.53;;
10311;SDS011;5201;48.776;9.128;2022-12-24T02:17:28;6.07;;;1.33;;
10311;SDS011;5201;48.776;9.128;2022-12-24T02:31:11;6.73;;;1.57;;
10311;SDS011;5201;48.776;9.128;2022-12-24T02:33:56;8.53;;;1.20;;
10311;SDS011;5201;48.776;9.128;2022-12-24T02:36:48;4.07;;;1.10;;
10311;SDS011;5201;48.776;9.128;2022-12-24T02:39:21;5.13;;;1.23;;
10311;SDS011;5201;48.776;9.128;2022-12-24T02:41:57;8.17;;;1.30;;
10311;SDS011;5201;48.776;9.128;2022-12-24T02:44:30;5.27;;;1.17;;
10311;SDS011;5201;48.776;9.128;2022-12-24T02:47:08;6.23;;;1.40;;
10311;SDS011;5201;48.776;9.128;2022-12-24T02:49:35;4.73;;;0.80;;
10311;SDS011;5201;48.776;9.128;2022-12-24T02:52:01;3.10;;;1.07;;
10311;SDS011;5201;48.776;9.128;2022-12-24T02:54:27;3.03;;;0.87;;
10311;SDS011;5201;48.776;9.128;2022-12-24T02:56:58;4.87;;;1.37;;
10311;SDS011;5201;48.776;9.128;2022-12-24T03:10:46;7.57;;;1.10;;
10311;SDS011;5201;48.776;9.128;2022-12-24T03:13:19;6.00;;;1.53;;
10311;SDS011;5201;48.776;9.128;2022-12-24T03:15:47;7.63;;;1.50;;
10311;SDS011;5201;48.776;9.128;2022-12-24T03:18:16;7.20;;;1.40;;
10311;SDS011;5201;48.776;9.128;2022-12-24T03:20:45;3.17;;;0.97;;
10311;SDS011;5201;48.776;9.128;2022-12-24T03:23:15;3.10;;;1.50;;
10311;SDS011;5201;48.776;9.128;2022-12-24T03:25:41;5.33;;;1.10;;
10311;SDS011;5201;48.776;9.128;2022-12-24T03:28:09;4.70;;;1.27;;
10311;SDS011;5201;48.776;9.128;2022-12-24T03:30:40;6.80;;;1.30;;
10311;SDS011;5201;48.776;9.128;2022-12-24T03:33:08;5.40;;;1.10;;
10311;SDS011;5201;48.776;9.128;2022-12-24T03:35:34;6.83;;;1.37;;
10311;SDS011;5201;48.776;9.128;2022-12-24T03:38:00;2.93;;;1.00;;
10311;SDS011;5201;48.776;9.128;2022-12-24T03:40:25;9.43;;;1.43;;
10311;SDS011;5201;48.776;9.128;2022-12-24T03:42:51;4.43;;;1.20;;
10311;SDS011;5201;48.776;9.128;2022-12-24T03:45:17;7.30;;;1.23;;
10311;SDS011;5201;48.776;9.128;2022-12-24T03:47:42;9.60;;;1.37;;
10311;SDS011;5201;48.776;9.128;2022-12-24T03:50:08;4.37;;;1.40;;
10311;SDS011;5201;48.776;9.128;2022-12-24T03:52:34;6.53;;;1.40;;
10311;SDS011;5201;48.776;9.128;2022-12-24T03:55:00;3.30;;;1.17;;
10311;SDS011;5201;48.776;9.128;2022-12-24T03:57:25;14.53;;;1.63;;
10311;SDS011;5201;48.776;9.128;2022-12-24T03:59:51;7.07;;;1.63;;
10311;SDS011;5201;48.776;9.128;2022-12-24T04:02:16;8.43;;;1.53;;
10311;SDS011;5201;48.776;9.128;2022-12-24T04:04:42;10.90;;;1.80;;
10311;SDS011;5201;48.776;9.128;2022-12-24T04:07:08;4.33;;;1.33;;
10311;SDS011;5201;48.776;9.128;2022-12-24T04:09:33;5.83;;;2.27;;
10311;SDS011;5201;48.776;9.128;2022-12-24T04:11:59;3.77;;;0.90;;
10311;SDS011;5201;48.776;9.128;2022-12-24T04:14:24;6.37;;;0.90;;
10311;SDS011;5201;48.776;9.128;2022-12-24T04:16:50;3.90;;;1.30;;
10311;SDS011;5201;48.776;9.128;2022-12-24T04:19:16;11.37;;;1.50;;
10311;SDS011;5201;48.776;9.128;2022-12-24T04:21:41;5.10;;;1.57;;
10311;SDS011;5201;48.776;9.128;2022-12-24T04:24:07;3.43;;;1.30;;
10311;SDS011;5201;48.776;9.128;2022-12-24T04:26:32;7.57;;;1.53;;
10311;SDS011;5201;48.776;9.128;2022-12-24T04:28:58;6.87;;;1.43;;
10311;SDS011;5201;48.776;9.128;2022-12-24T04:31:24;4.73;;;1.20;;
10311;SDS011;5201;48.776;9.128;2022-12-24T04:33:50;7.87;;;2.20;;
10311;SDS011;5201;48.776;9.128;2022-12-24T04:36:17;5.13;;;1.50;;
10311;SDS011;5201;48.776;9.128;2022-12-24T04:38:44;4.93;;;1.00;;
10311;SDS011;5201;48.776;9.128;2022-12-24T04:41:11;1.20;;;1.10;;
10311;SDS011;5201;48.776;9.128;2022-12-24T04:43:39;6.93;;;1.47;;
10311;SDS011;5201;48.776;9.128;2022-12-24T04:46:06;2.60;;;1.07;;
10311;SDS011;5201;48.776;9.128;2022-12-24T04:48:42;5.50;;;1.47;;
10311;SDS011;5201;48.776;9.128;2022-12-24T04:51:09;5.30;;;1.33;;
10311;SDS011;5201;48.776;9.128;2022-12-24T04:53:36;3.53;;;0.93;;
10311;SDS011;5201;48.776;9.128;2022-12-24T04:56:03;2.97;;;1.30;;
10311;SDS011;5201;48.776;9.128;2022-12-24T04:58:31;13.47;;;2.30;;
10311;SDS011;5201;48.776;9.128;2022-12-24T05:01:02;3.53;;;0.97;;
10311;SDS011;5201;48.776;9.128;2022-12-24T05:03:31;3.07;;;1.10;;
10311;SDS011;5201;48.776;9.128;2022-12-24T05:06:04;5.03;;;1.20;;
10311;SDS011;5201;48.776;9.128;2022-12-24T05:08:31;3.20;;;1.47;;
10311;SDS011;5201;48.776;9.128;2022-12-24T05:10:58;1.93;;;1.10;;
10311;SDS011;5201;48.776;9.128;2022-12-24T05:13:24;5.30;;;1.17;;
10311;SDS011;5201;48.776;9.128;2022-12-24T05:15:50;5.17;;;1.80;;
10311;SDS011;5201;48.776;9.128;2022-12-24T05:18:16;5.07;;;1.27;;
10311;SDS011;5201;48.776;9.128;2022-12-24T05:20:41;7.57;;;1.23;;
10311;SDS011;5201;48.776;9.128;2022-12-24T05:23:08;7.23;;;1.13;;
10311;SDS011;5201;48.776;9.128;2022-12-24T05:26:00;5.80;;;1.30;;
10311;SDS011;5201;48.776;9.128;2022-12-24T05:28:44;1.50;;;0.97;;
10311;SDS011;5201;48.776;9.128;2022-12-24T05:31:10;6.97;;;1.30;;
10311;SDS011;5201;48.776;9.128;2022-12-24T05:33:35;7.07;;;1.30;;
10311;SDS011;5201;48.776;9.128;2022-12-24T05:36:01;3.57;;;1.20;;
10311;SDS011;5201;48.776;9.128;2022-12-24T05:38:26;7.77;;;1.30;;
10311;SDS011;5201;48.776;9.128;2022-12-24T05:40:52;7.53;;;1.50;;
10311;SDS011;5201;48.776;9.128;2022-12-24T05:43:18;11.43;;;1.30;;
10311;SDS011;5201;48.776;9.128;2022-12-24T05:45:43;6.60;;;1.90;;
10311;SDS011;5201;48.776;9.128;2022-12-24T05:48:09;9.77;;;1.20;;
10311;SDS011;5201;48.776;9.128;2022-12-24T05:50:34;9.03;;;1.27;;
10311;SDS011;5201;48.776;9.128;2022-12-24T05:53:02;1.53;;;1.00;;
10311;SDS011;5201;48.776;9.128;2022-12-24T05:55:28;4.53;;;1.37;;
10311;SDS011;5201;48.776;9.128;2022-12-24T05:57:53;6.50;;;1.17;;
10311;SDS011;5201;48.776;9.128;2022-12-24T06:00:19;4.70;;;1.73;;
10311;SDS011;5201;48.776;9.128;2022-12-24T06:02:45;6.03;;;1.20;;
10311;SDS011;5201;48.776;9.128;2022-12-24T06:05:10;4.13;;;1.70;;
10311;SDS011;5201;48.776;9.128;2022-12-24T06:07:36;8.30;;;1.43;;
10311;SDS011;5201;48.776;9.128;2022-12-24T06:10:02;11.10;;;1.40;;
10311;SDS011;5201;48.776;9.128;2022-12-24T06:12:28;5.97;;;1.30;;
10311;SDS011;5201;48.776;9.128;2022-12-24T06:14:54;7.40;;;1.37;;
10311;SDS011;5201;48.776;9.128;2022-12-24T06:17:19;13.13;;;1.17;;
10311;SDS011;5201;48.776;9.128;2022-12-24T06:19:45;10.23;;;1.83;;
10311;SDS011;5201;48.776;9.128;2022-12-24T06:22:10;10.77;;;1.30;;
10311;SDS011;5201;48.776;9.128;2022-12-24T06:24:36;4.67;;;1.13;;
10311;SDS011;5201;48.776;9.128;2022-12-24T06:27:01;5.30;;;1.37;;
10311;SDS011;5201;48.776;9.128;2022-12-24T06:29:27;4.57;;;1.53;;
10311;SDS011;5201;48.776;9.128;2022-12-24T06:31:52;7.10;;;1.03;;
10311;SDS011;5201;48.776;9.128;2022-12-24T06:34:18;5.33;;;1.37;;
10311;SDS011;5201;48.776;9.128;2022-12-24T06:36:44;5.83;;;1.30;;
10311;SDS011;5201;48.776;9.128;2022-12-24T06:39:09;7.30;;;1.80;;
10311;SDS011;5201;48.776;9.128;2022-12-24T06:41:35;7.20;;;1.63;;
10311;SDS011;5201;48.776;9.128;2022-12-24T06:44:00;3.40;;;1.50;;
10311;SDS011;5201;48.776;9.128;2022-12-24T06:46:26;5.47;;;1.27;;
10311;SDS011;5201;48.776;9.128;2022-12-24T06:48:51;4.17;;;1.73;;
10311;SDS011;5201;48.776;9.128;2022-12-24T06:51:19;5.83;;;1.57;;
10311;SDS011;5201;48.776;9.128;2022-12-24T06:53:45;6.97;;;1.63;;
10311;SDS011;5201;48.776;9.128;2022-12-24T06:56:11;7.80;;;1.50;;
10311;SDS011;5201;48.776;9.128;2022-12-24T06:58:38;5.37;;;1.30;;
10311;SDS011;5201;48.776;9.128;2022-12-24T07:01:05;5.93;;;1.40;;
10311;SDS011;5201;48.776;9.128;2022-12-24T07:03:32;5.67;;;1.20;;
10311;SDS011;5201;48.776;9.128;2022-12-24T07:05:58;8.27;;;1.63;;
10311;SDS011;5201;48.776;9.128;2022-12-24T07:08:23;5.73;;;1.23;;
10311;SDS011;5201;48.776;9.128;2022-12-24T07:10:50;10.23;;;1.80;;
10311;SDS011;5201;48.776;9.128;2022-12-24T07:13:16;11.57;;;1.40;;
10311;SDS011;5201;48.776;9.128;2022-12-24T07:15:42;6.50;;;1.20;;
10311;SDS011;5201;48.776;9.128;2022-12-24T07:18:08;8.57;;;1.40;;
10311;SDS011;5201;48.776;9.128;2022-12-24T07:20:33;9.33;;;1.07;;
10311;SDS011;5201;48.776;9.128;2022-12-24T07:22:59;5.57;;;1.33;;
10311;SDS011;5201;48.776;9.128;2022-12-24T07:25:25;6.60;;;1.20;;
10311;SDS011;5201;48.776;9.128;2022-12-24T07:27:51;8.83;;;1.57;;
10311;SDS011;5201;48.776;9.128;2022-12-24T07:30:17;5.20;;;1.20;;
10311;SDS011;5201;48.776;9.128;2022-12-24T07:32:42;5.37;;;1.30;;
10311;SDS011;5201;48.776;9.128;2022-12-24T07:35:08;10.40;;;1.30;;
10311;SDS011;5201;48.776;9.128;2022-12-24T07:37:34;6.57;;;1.13;;
10311;SDS011;5201;48.776;9.128;2022-12-24T07:40:00;7.57;;;1.60;;
10311;SDS011;5201;48.776;9.128;2022-12-24T07:42:26;5.87;;;1.30;;
10311;SDS011;5201;48.776;9.128;2022-12-24T07:44:51;2.47;;;1.13;;
10311;SDS011;5201;48.776;9.128;2022-12-24T07:47:17;2.80;;;1.23;;
10311;SDS011;5201;48.776;9.128;2022-12-24T07:49:42;9.20;;;1.60;;
10311;SDS011;5201;48.776;9.128;2022-12-24T07:52:08;6.57;;;1.37;;
10311;SDS011;5201;48.776;9.128;2022-12-24T07:54:33;9.27;;;1.30;;
10311;SDS011;5201;48.776;9.128;2022-12-24T07:56:59;4.87;;;1.10;;
10311;SDS011;5201;48.776;9.128;2022-12-24T07:59:25;5.77;;;1.20;;
10311;SDS011;5201;48.776;9.128;2022-12-24T08:01:50;6.30;;;1.27;;
10311;SDS011;5201;48.776;9.128;2022-12-24T08:04:16;9.30;;;1.27;;
10311;SDS011;5201;48.776;9.128;2022-12-24T08:06:42;4.73;;;1.57;;
10311;SDS011;5201;48.776;9.128;2022-12-24T08:09:07;5.67;;;1.20;;
10311;SDS011;5201;48.776;9.128;2022-12-24T08:11:33;3.43;;;0.93;;
10311;SDS011;5201;48.776;9.128;2022-12-24T08:13:58;7.53;;;1.60;;
10311;SDS011;5201;48.776;9.128;2022-12-24T08:16:24;8.70;;;1.20;;
10311;SDS011;5201;48.776;9.128;2022-12-24T08:18:49;6.43;;;1.10;;
10311;SDS011;5201;48.776;9.128;2022-12-24T08:21:15;8.00;;;1.30;;
10311;SDS011;5201;48.776;9.128;2022-12-24T08:23:41;5.67;;;1.60;;
10311;SDS011;5201;48.776;9.128;2022-12-24T08:26:07;11.57;;;1.53;;
10311;SDS011;5201;48.776;9.128;2022-12-24T08:28:34;7.73;;;1.30;;
10311;SDS011;5201;48.776;9.128;2022-12-24T08:31:00;8.87;;;1.30;;
10311;SDS011;5201;48.776;9.128;2022-12-24T08:33:26;3.27;;;1.20;;
10311;SDS011;5201;48.776;9.128;2022-12-24T08:35:54;9.67;;;2.10;;
10311;SDS011;5201;48.776;9.128;2022-12-24T08:38:20;3.17;;;1.33;;
10311;SDS011;5201;48.776;9.128;2022-12-24T08:40:46;11.87;;;1.37;;
10311;SDS011;5201;48.776;9.128;2022-12-24T08:43:17;6.37;;;1.40;;
10311;SDS011;5201;48.776;9.128;2022-12-24T08:45:44;6.53;;;1.67;;
10311;SDS011;5201;48.776;9.128;2022-12-24T08:48:10;13.03;;;2.13;;
10311;SDS011;5201;48.776;9.128;2022-12-24T08:50:39;7.00;;;1.57;;
10311;SDS011;5201;48.776;9.128;2022-12-24T08:53:05;8.80;;;1.70;;
10311;SDS011;5201;48.776;9.128;2022-12-24T08:55:31;11.83;;;1.60;;
10311;SDS011;5201;48.776;9.128;2022-12-24T08:57:58;8.83;;;1.60;;
10311;SDS011;5201;48.776;9.128;2022-12-24T09:00:24;8.77;;;1.53;;
10311;SDS011;5201;48.776;9.128;2022-12-24T09:02:49;7.13;;;1.60;;
10311;SDS011;5201;48.776;9.128;2022-12-24T09:05:15;4.93;;;1.60;;
10311;SDS011;5201;48.776;9.128;2022-12-24T09:07:41;3.23;;;1.07;;
10311;SDS011;5201;48.776;9.128;2022-12-24T09:10:07;7.27;;;1.40;;
10311;SDS011;5201;48.776;9.128;2022-12-24T09:12:33;5.77;;;1.40;;
10311;SDS011;5201;48.776;9.128;2022-12-24T09:14:59;6.83;;;1.37;;
10311;SDS011;5201;48.776;9.128;2022-12-24T09:17:24;12.53;;;2.13;;
10311;SDS011;5201;48.776;9.128;2022-12-24T09:19:50;16.00;;;1.80;;
10311;SDS011;5201;48.776;9.128;2022-12-24T09:22:15;7.60;;;1.80;;
10311;SDS011;5201;48.776;9.128;2022-12-24T09:24:41;5.03;;;1.67;;
10311;SDS011;5201;48.776;9.128;2022-12-24T09:27:07;5.40;;;1.27;;
10311;SDS011;5201;48.776;9.128;2022-12-24T09:29:32;5.50;;;1.83;;
10311;SDS011;5201;48.776;9.128;2022-12-24T09:31:58;5.37;;;1.90;;
10311;SDS011;5201;48.776;9.128;2022-12-24T09:34:24;4.27;;;1.37;;
10311;SDS011;5201;48.776;9.128;2022-12-24T09:36:49;9.00;;;1.63;;
10311;SDS011;5201;48.776;9.128;2022-12-24T09:39:18;7.77;;;1.83;;
10311;SDS011;5201;48.776;9.128;2022-12-24T09:41:55;6.37;;;1.40;;
10311;SDS011;5201;48.776;9.128;2022-12-24T09:47:28;7.67;;;1.30;;
10311;SDS011;5201;48.776;9.128;2022-12-24T09:49:56;7.30;;;1.37;;
10311;SDS011;5201;48.776;9.128;2022-12-24T09:52:29;7.03;;;1.30;;
10311;SDS011;5201;48.776;9.128;2022-12-24T09:55:42;10.53;;;1.53;;
10311;SDS011;5201;48.776;9.128;2022-12-24T09:57:51;8.27;;;1.67;;
10311;SDS011;5201;48.776;9.128;2022-12-24T10:00:23;7.83;;;1.50;;
10311;SDS011;5201;48.776;9.128;2022-12-24T10:02:52;7.20;;;1.50;;
10311;SDS011;5201;48.776;9.128;2022-12-24T10:05:18;8.47;;;1.47;;
10311;SDS011;5201;48.776;9.128;2022-12-24T10:08:11;8.70;;;1.33;;
10311;SDS011;5201;48.776;9.128;2022-12-24T10:10:45;5.87;;;1.63;;
10311;SDS011;5201;48.776;9.128;2022-12-24T10:13:19;6.53;;;1.17;;
10311;SDS011;5201;48.776;9.128;2022-12-24T10:15:59;12.00;;;2.07;;
10311;SDS011;5201;48.776;9.128;2022-12-24T10:18:34;7.87;;;1.30;;
10311;SDS011;5201;48.776;9.128;2022-12-24T10:23:53;6.33;;;1.20;;
10311;SDS011;5201;48.776;9.128;2022-12-24T10:26:24;4.90;;;1.50;;
10311;SDS011;5201;48.776;9.128;2022-12-24T10:28:53;9.77;;;1.70;;
10311;SDS011;5201;48.776;9.128;2022-12-24T10:31:24;5.90;;;1.40;;
10311;SDS011;5201;48.776;9.128;2022-12-24T10:33:54;2.17;;;0.87;;
10311;SDS011;5201;48.776;9.128;2022-12-24T10:36:24;16.83;;;1.70;;
10311;SDS011;5201;48.776;9.128;2022-12-24T10:38:52;6.83;;;1.30;;
10311;SDS011;5201;48.776;9.128;2022-12-24T10:41:18;10.33;;;1.53;;
10311;SDS011;5201;48.776;9.128;2022-12-24T10:43:45;5.17;;;1.20;;
10311;SDS011;5201;48.776;9.128;2022-12-24T10:46:22;4.30;;;1.43;;
10311;SDS011;5201;48.776;9.128;2022-12-24T10:48:58;13.27;;;2.03;;
10311;SDS011;5201;48.776;9.128;2022-12-24T10:54:09;6.50;;;2.20;;
10311;SDS011;5201;48.776;9.128;2022-12-24T10:56:42;12.67;;;1.83;;
10311;SDS011;5201;48.776;9.128;2022-12-24T11:01:58;6.70;;;1.33;;
10311;SDS011;5201;48.776;9.128;2022-12-24T11:04:25;6.77;;;1.50;;
10311;SDS011;5201;48.776;9.128;2022-12-24T11:06:59;3.70;;;1.30;;
10311;SDS011;5201;48.776;9.128;2022-12-24T11:09:27;3.00;;;1.10;;
10311;SDS011;5201;48.776;9.128;2022-12-24T11:11:59;10.57;;;1.43;;
10311;SDS011;5201;48.776;9.128;2022-12-24T11:14:30;8.07;;;1.80;;
10311;SDS011;5201;48.776;9.128;2022-12-24T11:17:00;4.97;;;1.20;;
10311;SDS011;5201;48.776;9.128;2022-12-24T11:19:32;8.80;;;1.43;;
10311;SDS011;5201;48.776;9.128;2022-12-24T11:22:03;7.03;;;1.40;;
10311;SDS011;5201;48.776;9.128;2022-12-24T11:24:42;3.27;;;1.00;;
10311;SDS011;5201;48.776;9.128;2022-12-24T11:27:22;4.17;;;1.33;;
10311;SDS011;5201;48.776;9.128;2022-12-24T11:32:40;10.30;;;1.50;;
10311;SDS011;5201;48.776;9.128;2022-12-24T11:35:07;5.67;;;1.03;;
10311;SDS011;5201;48.776;9.128;2022-12-24T11:37:41;7.20;;;1.40;;
10311;SDS011;5201;48.776;9.128;2022-12-24T11:40:16;6.95;;;1.38;;
10311;SDS011;5201;48.776;9.128;2022-12-24T11:42:48;9.10;;;1.97;;
10311;SDS011;5201;48.776;9.128;2022-12-24T11:45:25;7.60;;;1.60;;
10311;SDS011;5201;48.776;9.128;2022-12-24T11:47:52;6.80;;;1.37;;
10311;SDS011;5201;48.776;9.128;2022-12-24T11:50:23;8.33;;;1.47;;
10311;SDS011;5201;48.776;9.128;2022-12-24T12:00:49;7.07;;;1.07;;
10311;SDS011;5201;48.776;9.128;2022-12-24T12:03:35;8.30;;;1.33;;
10311;SDS011;5201;48.776;9.128;2022-12-24T12:06:17;10.07;;;1.10;;
10311;SDS011;5201;48.776;9.128;2022-12-24T12:08:50;5.13;;;1.47;;
10311;SDS011;5201;48.776;9.128;2022-12-24T12:11:25;3.77;;;1.13;;
10311;SDS011;5201;48.776;9.128;2022-12-24T12:13:52;6.93;;;1.50;;
10311;SDS011;5201;48.776;9.128;2022-12-24T12:16:42;14.10;;;1.23;;
10311;SDS011;5201;48.776;9.128;2022-12-24T12:19:24;2.87;;;0.90;;
10311;SDS011;5201;48.776;9.128;2022-12-24T12:21:55;6.37;;;1.20;;
10311;SDS011;5201;48.776;9.128;2022-12-24T12:24:32;5.73;;;1.30;;
10311;SDS011;5201;48.776;9.128;2022-12-24T12:27:22;3.93;;;1.03;;
10311;SDS011;5201;48.776;9.128;2022-12-24T12:30:18;9.53;;;1.20;;
10311;SDS011;5201;48.776;9.128;2022-12-24T12:35:31;7.23;;;1.23;;
10311;SDS011;5201;48.776;9.128;2022-12-24T12:38:01;11.27;;;1.70;;
10311;SDS011;5201;48.776;9.128;2022-12-24T12:41:17;9.57;;;1.50;;
10311;SDS011;5201;48.776;9.128;2022-12-24T12:49:00;9.30;;;1.50;;
10311;SDS011;5201;48.776;9.128;2022-12-24T12:51:39;4.73;;;1.10;;
10311;SDS011;5201;48.776;9.128;2022-12-24T12:56:43;7.70;;;1.50;;
10311;SDS011;5201;48.776;9.128;2022-12-24T12:59:13;4.27;;;1.50;;
10311;SDS011;5201;48.776;9.128;2022-12-24T13:01:43;7.37;;;1.30;;
10311;SDS011;5201;48.776;9.128;2022-12-24T13:15:46;5.27;;;1.20;;
10311;SDS011;5201;48.776;9.128;2022-12-24T13:21:29;6.73;;;1.30;;
10311;SDS011;5201;48.776;9.128;2022-12-24T13:24:05;6.60;;;1.27;;
10311;SDS011;5201;48.776;9.128;2022-12-24T13:26:40;8.40;;;1.30;;
10311;SDS011;5201;48.776;9.128;2022-12-24T13:32:47;2.93;;;1.10;;
10311;SDS011;5201;48.776;9.128;2022-12-24T13:37:43;7.67;;;1.27;;
10311;SDS011;5201;48.776;9.128;2022-12-24T13:50:39;5.27;;;1.43;;
10311;SDS011;5201;48.776;9.128;2022-12-24T13:56:01;5.30;;;1.57;;
10311;SDS011;5201;48.776;9.128;2022-12-24T13:58:31;9.60;;;1.33;;
10311;SDS011;5201;48.776;9.128;2022-12-24T14:01:02;8.47;;;1.63;;
10311;SDS011;5201;48.776;9.128;2022-12-24T14:05:58;5.43;;;1.43;;
10311;SDS011;5201;48.776;9.128;2022-12-24T14:08:40;7.00;;;1.67;;
10311;SDS011;5201;48.776;9.128;2022-12-24T14:11:18;4.77;;;1.27;;
10311;SDS011;5201;48.776;9.128;2022-12-24T14:16:17;4.97;;;1.10;;
10311;SDS011;5201;48.776;9.128;2022-12-24T14:21:44;7.47;;;2.53;;
10311;SDS011;5201;48.776;9.128;2022-12-24T14:24:26;7.23;;;1.57;;
10311;SDS011;5201;48.776;9.128;2022-12-24T14:26:57;6.80;;;1.67;;
10311;SDS011;5201;48.776;9.128;2022-12-24T14:29:51;8.53;;;1.30;;
10311;SDS011;5201;48.776;9.128;2022-12-24T14:32:36;7.33;;;1.67;;
10311;SDS011;5201;48.776;9.128;2022-12-24T14:35:08;7.77;;;1.67;;
10311;SDS011;5201;48.776;9.128;2022-12-24T14:37:47;5.07;;;1.20;;
10311;SDS011;5201;48.776;9.128;2022-12-24T14:40:17;9.33;;;1.40;;
10311;SDS011;5201;48.776;9.128;2022-12-24T14:48:11;4.20;;;1.30;;
10311;SDS011;5201;48.776;9.128;2022-12-24T14:56:22;6.53;;;1.50;;
10311;SDS011;5201;48.776;9.128;2022-12-24T14:58:48;4.90;;;1.50;;
10311;SDS011;5201;48.776;9.128;2022-12-24T15:01:21;5.33;;;1.50;;
10311;SDS011;5201;48.776;9.128;2022-12-24T15:06:36;6.93;;;1.57;;
10311;SDS011;5201;48.776;9.128;2022-12-24T15:09:27;6.47;;;1.43;;
10311;SDS011;5201;48.776;9.128;2022-12-24T15:11:55;4.97;;;1.20;;
10311;SDS011;5201;48.776;9.128;2022-12-24T15:14:24;11.13;;;1.57;;
10311;SDS011;5201;48.776;9.128;2022-12-24T15:16:55;6.73;;;1.23;;
10311;SDS011;5201;48.776;9.128;2022-12-24T15:19:28;9.33;;;1.70;;
10311;SDS011;5201;48.776;9.128;2022-12-24T15:21:58;3.37;;;1.37;;
10311;SDS011;5201;48.776;9.128;2022-12-24T15:26:52;6.83;;;1.53;;
10311;SDS011;5201;48.776;9.128;2022-12-24T15:29:25;6.90;;;1.70;;
10311;SDS011;5201;48.776;9.128;2022-12-24T15:31:59;7.20;;;1.63;;
10311;SDS011;5201;48.776;9.128;2022-12-24T15:39:52;6.00;;;1.40;;
10311;SDS011;5201;48.776;9.128;2022-12-24T15:42:23;12.20;;;1.57;;
10311;SDS011;5201;48.776;9.128;2022-12-24T15:44:56;7.87;;;1.77;;
10311;SDS011;5201;48.776;9.128;2022-12-24T15:47:28;10.57;;;2.20;;
10311;SDS011;5201;48.776;9.128;2022-12-24T15:50:02;5.70;;;1.40;;
10311;SDS011;5201;48.776;9.128;2022-12-24T15:52:37;7.33;;;1.40;;
10311;SDS011;5201;48.776;9.128;2022-12-24T15:55:22;5.47;;;1.47;;
10311;SDS011;5201;48.776;9.128;2022-12-24T15:57:52;9.60;;;2.07;;
10311;SDS011;5201;48.776;9.128;2022-12-24T16:00:22;11.23;;;2.47;;
10311;SDS011;5201;48.776;9.128;2022-12-24T16:03:07;10.37;;;2.40;;
10311;SDS011;5201;48.776;9.128;2022-12-24T16:05:44;4.43;;;1.67;;
10311;SDS011;5201;48.776;9.128;2022-12-24T16:15:47;11.53;;;3.87;;
10311;SDS011;5201;48.776;9.128;2022-12-24T16:18:23;8.57;;;3.63;;
10311;SDS011;5201;48.776;9.128;2022-12-24T16:21:15;14.37;;;3.07;;
10311;SDS011;5201;48.776;9.128;2022-12-24T16:23:45;6.37;;;2.30;;
10311;SDS011;5201;48.776;9.128;2022-12-24T16:26:13;7.77;;;3.60;;
10311;SDS011;5201;48.776;9.128;2022-12-24T16:28:38;16.07;;;5.63;;
10311;SDS011;5201;48.776;9.128;2022-12-24T16:31:04;17.87;;;5.30;;
10311;SDS011;5201;48.776;9.128;2022-12-24T16:33:30;13.50;;;4.60;;
10311;SDS011;5201;48.776;9.128;2022-12-24T16:35:56;10.70;;;3.57;;
10311;SDS011;5201;48.776;9.128;2022-12-24T16:38:21;9.90;;;4.53;;
10311;SDS011;5201;48.776;9.128;2022-12-24T16:40:47;10.23;;;3.00;;
10311;SDS011;5201;48.776;9.128;2022-12-24T16:43:13;7.87;;;2.73;;
10311;SDS011;5201;48.776;9.128;2022-12-24T16:46:01;4.40;;;1.90;;
10311;SDS011;5201;48.776;9.128;2022-12-24T16:48:29;16.07;;;2.20;;
10311;SDS011;5201;48.776;9.128;2022-12-24T16:50:55;6.17;;;1.90;;
10311;SDS011;5201;48.776;9.128;2022-12-24T16:53:21;13.03;;;2.17;;
10311;SDS011;5201;48.776;9.128;2022-12-24T16:55:47;5.50;;;1.70;;
10311;SDS011;5201;48.776;9.128;2022-12-24T16:58:15;12.17;;;1.90;;
10311;SDS011;5201;48.776;9.128;2022-12-24T17:00:41;6.57;;;2.00;;
10311;SDS011;5201;48.776;9.128;2022-12-24T17:03:08;10.50;;;2.23;;
10311;SDS011;5201;48.776;9.128;2022-12-24T17:05:41;11.17;;;1.80;;
10311;SDS011;5201;48.776;9.128;2022-12-24T17:08:08;13.47;;;1.97;;
10311;SDS011;5201;48.776;9.128;2022-12-24T17:10:34;4.13;;;1.70;;
10311;SDS011;5201;48.776;9.128;2022-12-24T17:13:00;9.13;;;1.70;;
10311;SDS011;5201;48.776;9.128;2022-12-24T17:15:26;7.60;;;1.70;;
10311;SDS011;5201;48.776;9.128;2022-12-24T17:17:52;5.30;;;1.40;;
10311;SDS011;5201;48.776;9.128;2022-12-24T17:20:18;5.30;;;1.90;;
10311;SDS011;5201;48.776;9.128;2022-12-24T17:22:43;7.43;;;2.30;;
10311;SDS011;5201;48.776;9.128;2022-12-24T17:25:10;10.83;;;2.13;;